sensor_id;sensor_type;location;lat;lon;timestamp;P1;durP1;ratioP1;P2;durP2;ratioP2
55015;SDS011;40919;43.236;21.590;2022-08-19T00:00:03;11.70;;;7.10;;
55015;SDS011;40919;43.236;21.590;2022-08-19T00:02:30;12.20;;;7.40;;
55015;SDS011;40919;43.236;21.590;2022-08-19T00:04:56;14.98;;;8.02;;
55015;SDS011;40919;43.236;21.590;2022-08-19T00:07:22;12.95;;;6.78;;
55015;SDS011;40919;43.236;21.590;2022-08-19T00:09:48;9.35;;;6.85;;
55015;SDS011;40919;43.236;21.590;2022-08-19T00:12:14;12.75;;;7.20;;
55015;SDS011;40919;43.236;21.590;2022-08-19T00:14:40;12.98;;;7.25;;
55015;SDS011;40919;43.236;21.590;2022-08-19T00:17:07;10.20;;;7.07;;
55015;SDS011;40919;43.236;21.590;2022-08-19T00:19:34;14.48;;;7.22;;
55015;SDS011;40919;43.236;21.590;2022-08-19T00:22:01;10.60;;;7.32;;
55015;SDS011;40919;43.236;21.590;2022-08-19T00:24:27;9.52;;;7.10;;
55015;SDS011;40919;43.236;21.590;2022-08-19T00:26:54;12.63;;;7.60;;
55015;SDS011;40919;43.236;21.590;2022-08-19T00:29:22;10.25;;;7.50;;
55015;SDS011;40919;43.236;21.590;2022-08-19T00:31:50;9.13;;;7.03;;
55015;SDS011;40919;43.236;21.590;2022-08-19T00:34:18;9.98;;;7.70;;
55015;SDS011;40919;43.236;21.590;2022-08-19T00:36:45;11.98;;;7.53;;
55015;SDS011;40919;43.236;21.590;2022-08-19T00:39:12;10.57;;;7.57;;
55015;SDS011;40919;43.236;21.590;2022-08-19T00:41:38;13.50;;;7.88;;
55015;SDS011;40919;43.236;21.590;2022-08-19T00:44:08;11.45;;;7.93;;
55015;SDS011;40919;43.236;21.590;2022-08-19T00:46:36;12.52;;;8.05;;
55015;SDS011;40919;43.236;21.590;2022-08-19T00:49:06;13.75;;;7.90;;
55015;SDS011;40919;43.236;21.590;2022-08-19T00:51:35;9.40;;;6.82;;
55015;SDS011;40919;43.236;21.590;2022-08-19T00:54:02;14.40;;;8.27;;
55015;SDS011;40919;43.236;21.590;2022-08-19T00:56:28;15.48;;;8.57;;
55015;SDS011;40919;43.236;21.590;2022-08-19T00:58:56;12.73;;;7.18;;
55015;SDS011;40919;43.236;21.590;2022-08-19T01:01:23;10.30;;;7.57;;
55015;SDS011;40919;43.236;21.590;2022-08-19T01:03:50;10.85;;;7.25;;
55015;SDS011;40919;43.236;21.590;2022-08-19T01:06:16;9.90;;;6.65;;
55015;SDS011;40919;43.236;21.590;2022-08-19T01:08:42;8.98;;;6.65;;
55015;SDS011;40919;43.236;21.590;2022-08-19T01:11:08;12.77;;;6.88;;
55015;SDS011;40919;43.236;21.590;2022-08-19T01:13:35;9.75;;;7.88;;
55015;SDS011;40919;43.236;21.590;2022-08-19T01:16:05;10.25;;;7.35;;
55015;SDS011;40919;43.236;21.590;2022-08-19T01:18:38;10.75;;;7.72;;
55015;SDS011;40919;43.236;21.590;2022-08-19T01:23:45;8.48;;;7.13;;
55015;SDS011;40919;43.236;21.590;2022-08-19T01:26:12;11.80;;;7.03;;
55015;SDS011;40919;43.236;21.590;2022-08-19T01:28:41;10.57;;;7.05;;
55015;SDS011;40919;43.236;21.590;2022-08-19T01:31:10;10.48;;;7.38;;
55015;SDS011;40919;43.236;21.590;2022-08-19T01:33:39;11.65;;;7.43;;
55015;SDS011;40919;43.236;21.590;2022-08-19T01:36:09;10.75;;;6.57;;
55015;SDS011;40919;43.236;21.590;2022-08-19T01:38:39;11.30;;;6.80;;
55015;SDS011;40919;43.236;21.590;2022-08-19T01:41:08;11.15;;;7.10;;
55015;SDS011;40919;43.236;21.590;2022-08-19T01:43:35;9.73;;;6.90;;
55015;SDS011;40919;43.236;21.590;2022-08-19T01:46:02;8.82;;;7.25;;
55015;SDS011;40919;43.236;21.590;2022-08-19T01:48:33;9.38;;;7.03;;
55015;SDS011;40919;43.236;21.590;2022-08-19T01:51:00;10.83;;;7.37;;
55015;SDS011;40919;43.236;21.590;2022-08-19T01:53:26;13.35;;;7.60;;
55015;SDS011;40919;43.236;21.590;2022-08-19T01:55:52;12.00;;;7.50;;
55015;SDS011;40919;43.236;21.590;2022-08-19T01:58:20;10.90;;;7.70;;
55015;SDS011;40919;43.236;21.590;2022-08-19T02:00:49;10.02;;;7.60;;
55015;SDS011;40919;43.236;21.590;2022-08-19T02:03:15;9.75;;;7.60;;
55015;SDS011;40919;43.236;21.590;2022-08-19T02:05:41;12.98;;;8.38;;
55015;SDS011;40919;43.236;21.590;2022-08-19T02:08:08;11.48;;;8.23;;
55015;SDS011;40919;43.236;21.590;2022-08-19T02:10:37;12.45;;;7.93;;
55015;SDS011;40919;43.236;21.590;2022-08-19T02:13:06;10.70;;;7.78;;
55015;SDS011;40919;43.236;21.590;2022-08-19T02:15:32;10.93;;;7.63;;
55015;SDS011;40919;43.236;21.590;2022-08-19T02:17:58;12.25;;;6.72;;
55015;SDS011;40919;43.236;21.590;2022-08-19T02:20:24;9.40;;;6.80;;
55015;SDS011;40919;43.236;21.590;2022-08-19T02:22:50;10.38;;;6.65;;
55015;SDS011;40919;43.236;21.590;2022-08-19T02:25:16;9.70;;;7.97;;
55015;SDS011;40919;43.236;21.590;2022-08-19T02:27:42;11.30;;;8.07;;
55015;SDS011;40919;43.236;21.590;2022-08-19T02:30:11;11.05;;;7.13;;
55015;SDS011;40919;43.236;21.590;2022-08-19T02:35:07;11.38;;;7.32;;
55015;SDS011;40919;43.236;21.590;2022-08-19T02:37:33;11.35;;;6.95;;
55015;SDS011;40919;43.236;21.590;2022-08-19T02:40:17;8.43;;;7.10;;
55015;SDS011;40919;43.236;21.590;2022-08-19T02:42:44;12.48;;;7.60;;
55015;SDS011;40919;43.236;21.590;2022-08-19T02:45:11;9.90;;;7.10;;
55015;SDS011;40919;43.236;21.590;2022-08-19T02:47:38;9.43;;;7.85;;
55015;SDS011;40919;43.236;21.590;2022-08-19T02:50:04;11.32;;;8.00;;
55015;SDS011;40919;43.236;21.590;2022-08-19T02:52:31;12.82;;;8.13;;
55015;SDS011;40919;43.236;21.590;2022-08-19T02:54:58;13.20;;;9.23;;
55015;SDS011;40919;43.236;21.590;2022-08-19T02:57:25;14.95;;;9.57;;
55015;SDS011;40919;43.236;21.590;2022-08-19T02:59:51;15.95;;;8.90;;
55015;SDS011;40919;43.236;21.590;2022-08-19T03:02:17;11.50;;;8.30;;
55015;SDS011;40919;43.236;21.590;2022-08-19T03:04:44;11.75;;;8.45;;
55015;SDS011;40919;43.236;21.590;2022-08-19T03:07:12;12.13;;;7.85;;
55015;SDS011;40919;43.236;21.590;2022-08-19T03:09:40;16.17;;;8.48;;
55015;SDS011;40919;43.236;21.590;2022-08-19T03:12:08;15.15;;;8.45;;
55015;SDS011;40919;43.236;21.590;2022-08-19T03:14:35;10.48;;;8.18;;
55015;SDS011;40919;43.236;21.590;2022-08-19T03:17:01;11.52;;;8.65;;
55015;SDS011;40919;43.236;21.590;2022-08-19T03:19:29;12.40;;;9.07;;
55015;SDS011;40919;43.236;21.590;2022-08-19T03:21:56;11.27;;;8.75;;
55015;SDS011;40919;43.236;21.590;2022-08-19T03:24:22;11.20;;;7.90;;
55015;SDS011;40919;43.236;21.590;2022-08-19T03:26:50;10.32;;;8.15;;
55015;SDS011;40919;43.236;21.590;2022-08-19T03:29:20;11.30;;;8.25;;
55015;SDS011;40919;43.236;21.590;2022-08-19T03:31:46;14.43;;;8.00;;
55015;SDS011;40919;43.236;21.590;2022-08-19T03:34:13;11.73;;;8.18;;
55015;SDS011;40919;43.236;21.590;2022-08-19T03:36:39;14.82;;;7.65;;
55015;SDS011;40919;43.236;21.590;2022-08-19T03:39:05;10.27;;;7.38;;
55015;SDS011;40919;43.236;21.590;2022-08-19T03:41:36;15.25;;;8.82;;
55015;SDS011;40919;43.236;21.590;2022-08-19T03:44:02;10.23;;;7.93;;
55015;SDS011;40919;43.236;21.590;2022-08-19T03:46:31;10.60;;;8.10;;
55015;SDS011;40919;43.236;21.590;2022-08-19T03:48:58;11.90;;;8.15;;
55015;SDS011;40919;43.236;21.590;2022-08-19T03:53:51;12.35;;;8.00;;
55015;SDS011;40919;43.236;21.590;2022-08-19T03:56:17;13.25;;;8.52;;
55015;SDS011;40919;43.236;21.590;2022-08-19T03:58:44;12.77;;;7.93;;
55015;SDS011;40919;43.236;21.590;2022-08-19T04:01:11;14.07;;;8.82;;
55015;SDS011;40919;43.236;21.590;2022-08-19T04:03:39;14.23;;;9.10;;
55015;SDS011;40919;43.236;21.590;2022-08-19T04:06:10;11.15;;;9.15;;
55015;SDS011;40919;43.236;21.590;2022-08-19T04:08:36;14.60;;;8.38;;
55015;SDS011;40919;43.236;21.590;2022-08-19T04:11:06;15.13;;;8.95;;
55015;SDS011;40919;43.236;21.590;2022-08-19T04:13:32;14.57;;;8.95;;
55015;SDS011;40919;43.236;21.590;2022-08-19T04:15:59;15.05;;;8.48;;
55015;SDS011;40919;43.236;21.590;2022-08-19T04:18:25;12.98;;;8.85;;
55015;SDS011;40919;43.236;21.590;2022-08-19T04:20:54;14.75;;;8.57;;
55015;SDS011;40919;43.236;21.590;2022-08-19T04:23:20;13.88;;;8.68;;
55015;SDS011;40919;43.236;21.590;2022-08-19T04:25:46;13.25;;;9.25;;
55015;SDS011;40919;43.236;21.590;2022-08-19T04:28:13;11.73;;;8.52;;
55015;SDS011;40919;43.236;21.590;2022-08-19T04:30:40;15.40;;;8.20;;
55015;SDS011;40919;43.236;21.590;2022-08-19T04:33:07;14.65;;;8.55;;
55015;SDS011;40919;43.236;21.590;2022-08-19T04:35:40;11.73;;;8.57;;
55015;SDS011;40919;43.236;21.590;2022-08-19T04:38:07;12.70;;;8.43;;
55015;SDS011;40919;43.236;21.590;2022-08-19T04:40:33;12.93;;;7.75;;
55015;SDS011;40919;43.236;21.590;2022-08-19T04:43:18;11.85;;;8.30;;
55015;SDS011;40919;43.236;21.590;2022-08-19T04:45:45;10.55;;;8.15;;
55015;SDS011;40919;43.236;21.590;2022-08-19T04:48:11;20.45;;;9.07;;
55015;SDS011;40919;43.236;21.590;2022-08-19T04:50:41;11.23;;;8.63;;
55015;SDS011;40919;43.236;21.590;2022-08-19T04:53:08;16.23;;;8.65;;
55015;SDS011;40919;43.236;21.590;2022-08-19T04:55:34;14.63;;;8.20;;
55015;SDS011;40919;43.236;21.590;2022-08-19T04:58:00;10.85;;;8.00;;
55015;SDS011;40919;43.236;21.590;2022-08-19T05:00:27;10.85;;;8.60;;
55015;SDS011;40919;43.236;21.590;2022-08-19T05:02:53;13.10;;;8.40;;
55015;SDS011;40919;43.236;21.590;2022-08-19T05:05:20;14.77;;;9.48;;
55015;SDS011;40919;43.236;21.590;2022-08-19T05:07:46;14.05;;;9.18;;
55015;SDS011;40919;43.236;21.590;2022-08-19T05:10:12;11.20;;;8.10;;
55015;SDS011;40919;43.236;21.590;2022-08-19T05:12:39;14.25;;;8.32;;
55015;SDS011;40919;43.236;21.590;2022-08-19T05:15:05;14.20;;;8.30;;
55015;SDS011;40919;43.236;21.590;2022-08-19T05:17:33;13.82;;;8.05;;
55015;SDS011;40919;43.236;21.590;2022-08-19T05:20:00;12.13;;;8.52;;
55015;SDS011;40919;43.236;21.590;2022-08-19T05:22:46;16.40;;;8.18;;
55015;SDS011;40919;43.236;21.590;2022-08-19T05:25:14;12.95;;;8.30;;
55015;SDS011;40919;43.236;21.590;2022-08-19T05:27:40;14.05;;;8.32;;
55015;SDS011;40919;43.236;21.590;2022-08-19T05:30:07;13.25;;;8.57;;
55015;SDS011;40919;43.236;21.590;2022-08-19T05:32:34;14.73;;;7.90;;
55015;SDS011;40919;43.236;21.590;2022-08-19T05:35:00;9.75;;;8.20;;
55015;SDS011;40919;43.236;21.590;2022-08-19T05:37:27;13.55;;;7.45;;
55015;SDS011;40919;43.236;21.590;2022-08-19T05:39:53;12.07;;;7.82;;
55015;SDS011;40919;43.236;21.590;2022-08-19T05:42:19;13.10;;;8.35;;
55015;SDS011;40919;43.236;21.590;2022-08-19T05:44:47;13.55;;;8.52;;
55015;SDS011;40919;43.236;21.590;2022-08-19T05:47:14;12.05;;;8.02;;
55015;SDS011;40919;43.236;21.590;2022-08-19T05:49:40;13.30;;;7.95;;
55015;SDS011;40919;43.236;21.590;2022-08-19T05:52:08;12.00;;;8.25;;
55015;SDS011;40919;43.236;21.590;2022-08-19T05:54:36;13.25;;;8.52;;
55015;SDS011;40919;43.236;21.590;2022-08-19T05:57:05;9.65;;;8.13;;
55015;SDS011;40919;43.236;21.590;2022-08-19T05:59:31;12.68;;;8.00;;
55015;SDS011;40919;43.236;21.590;2022-08-19T06:02:00;14.57;;;7.93;;
55015;SDS011;40919;43.236;21.590;2022-08-19T06:04:27;13.93;;;8.40;;
55015;SDS011;40919;43.236;21.590;2022-08-19T06:06:53;16.77;;;9.05;;
55015;SDS011;40919;43.236;21.590;2022-08-19T06:09:21;11.23;;;7.78;;
55015;SDS011;40919;43.236;21.590;2022-08-19T06:11:49;10.32;;;7.60;;
55015;SDS011;40919;43.236;21.590;2022-08-19T06:14:19;13.48;;;7.85;;
55015;SDS011;40919;43.236;21.590;2022-08-19T06:16:46;12.38;;;8.02;;
55015;SDS011;40919;43.236;21.590;2022-08-19T06:19:15;11.15;;;8.20;;
55015;SDS011;40919;43.236;21.590;2022-08-19T06:21:43;14.57;;;9.50;;
55015;SDS011;40919;43.236;21.590;2022-08-19T06:24:11;11.02;;;8.45;;
55015;SDS011;40919;43.236;21.590;2022-08-19T06:26:38;13.95;;;8.50;;
55015;SDS011;40919;43.236;21.590;2022-08-19T06:29:05;12.55;;;8.48;;
55015;SDS011;40919;43.236;21.590;2022-08-19T06:31:32;17.33;;;8.38;;
55015;SDS011;40919;43.236;21.590;2022-08-19T06:33:59;15.32;;;8.63;;
55015;SDS011;40919;43.236;21.590;2022-08-19T06:36:28;12.65;;;8.45;;
55015;SDS011;40919;43.236;21.590;2022-08-19T06:38:59;12.25;;;7.75;;
55015;SDS011;40919;43.236;21.590;2022-08-19T06:41:31;15.90;;;8.50;;
55015;SDS011;40919;43.236;21.590;2022-08-19T06:43:59;12.82;;;7.97;;
55015;SDS011;40919;43.236;21.590;2022-08-19T06:46:25;16.25;;;8.18;;
55015;SDS011;40919;43.236;21.590;2022-08-19T06:48:51;15.02;;;8.90;;
55015;SDS011;40919;43.236;21.590;2022-08-19T06:51:19;15.60;;;7.57;;
55015;SDS011;40919;43.236;21.590;2022-08-19T06:53:46;15.98;;;8.63;;
55015;SDS011;40919;43.236;21.590;2022-08-19T06:56:13;14.75;;;7.30;;
55015;SDS011;40919;43.236;21.590;2022-08-19T06:58:44;14.98;;;7.72;;
55015;SDS011;40919;43.236;21.590;2022-08-19T07:01:11;18.35;;;7.38;;
55015;SDS011;40919;43.236;21.590;2022-08-19T07:03:38;11.85;;;7.45;;
55015;SDS011;40919;43.236;21.590;2022-08-19T07:06:11;9.52;;;7.22;;
55015;SDS011;40919;43.236;21.590;2022-08-19T07:08:40;13.57;;;7.15;;
55015;SDS011;40919;43.236;21.590;2022-08-19T07:11:08;9.43;;;6.80;;
55015;SDS011;40919;43.236;21.590;2022-08-19T07:13:36;12.15;;;6.80;;
55015;SDS011;40919;43.236;21.590;2022-08-19T07:16:06;10.85;;;6.07;;
55015;SDS011;40919;43.236;21.590;2022-08-19T07:18:33;10.27;;;6.72;;
55015;SDS011;40919;43.236;21.590;2022-08-19T07:21:07;9.35;;;6.40;;
55015;SDS011;40919;43.236;21.590;2022-08-19T07:23:35;10.45;;;6.72;;
55015;SDS011;40919;43.236;21.590;2022-08-19T07:26:06;10.00;;;6.47;;
55015;SDS011;40919;43.236;21.590;2022-08-19T07:28:32;14.45;;;6.68;;
55015;SDS011;40919;43.236;21.590;2022-08-19T07:31:05;12.25;;;7.35;;
55015;SDS011;40919;43.236;21.590;2022-08-19T07:33:31;11.20;;;6.47;;
55015;SDS011;40919;43.236;21.590;2022-08-19T07:35:58;9.80;;;7.00;;
55015;SDS011;40919;43.236;21.590;2022-08-19T07:38:24;12.93;;;7.40;;
55015;SDS011;40919;43.236;21.590;2022-08-19T07:40:51;10.90;;;7.00;;
55015;SDS011;40919;43.236;21.590;2022-08-19T07:43:17;10.50;;;6.85;;
55015;SDS011;40919;43.236;21.590;2022-08-19T07:45:45;10.90;;;8.15;;
55015;SDS011;40919;43.236;21.590;2022-08-19T07:48:12;10.02;;;6.55;;
55015;SDS011;40919;43.236;21.590;2022-08-19T07:50:39;10.55;;;7.85;;
55015;SDS011;40919;43.236;21.590;2022-08-19T07:53:05;9.18;;;6.40;;
55015;SDS011;40919;43.236;21.590;2022-08-19T07:55:31;9.10;;;5.80;;
55015;SDS011;40919;43.236;21.590;2022-08-19T07:57:56;10.10;;;6.50;;
55015;SDS011;40919;43.236;21.590;2022-08-19T08:00:23;9.15;;;7.20;;
55015;SDS011;40919;43.236;21.590;2022-08-19T08:02:48;10.88;;;6.90;;
55015;SDS011;40919;43.236;21.590;2022-08-19T08:05:14;14.27;;;7.15;;
55015;SDS011;40919;43.236;21.590;2022-08-19T08:07:59;12.93;;;7.85;;
55015;SDS011;40919;43.236;21.590;2022-08-19T08:10:44;12.95;;;6.50;;
55015;SDS011;40919;43.236;21.590;2022-08-19T08:13:10;7.85;;;6.22;;
55015;SDS011;40919;43.236;21.590;2022-08-19T08:15:37;9.63;;;6.78;;
55015;SDS011;40919;43.236;21.590;2022-08-19T08:18:04;13.80;;;6.70;;
55015;SDS011;40919;43.236;21.590;2022-08-19T08:20:30;11.77;;;6.38;;
55015;SDS011;40919;43.236;21.590;2022-08-19T08:22:56;9.35;;;6.07;;
55015;SDS011;40919;43.236;21.590;2022-08-19T08:25:40;9.68;;;6.05;;
55015;SDS011;40919;43.236;21.590;2022-08-19T08:28:06;10.45;;;6.00;;
55015;SDS011;40919;43.236;21.590;2022-08-19T08:30:34;11.45;;;6.43;;
55015;SDS011;40919;43.236;21.590;2022-08-19T08:33:02;8.38;;;6.00;;
55015;SDS011;40919;43.236;21.590;2022-08-19T08:35:28;9.32;;;6.18;;
55015;SDS011;40919;43.236;21.590;2022-08-19T08:37:54;7.28;;;5.30;;
55015;SDS011;40919;43.236;21.590;2022-08-19T08:43:05;11.35;;;6.38;;
55015;SDS011;40919;43.236;21.590;2022-08-19T08:48:25;8.43;;;6.70;;
55015;SDS011;40919;43.236;21.590;2022-08-19T08:50:56;8.52;;;6.97;;
55015;SDS011;40919;43.236;21.590;2022-08-19T08:53:23;11.65;;;7.22;;
55015;SDS011;40919;43.236;21.590;2022-08-19T08:55:50;10.65;;;6.63;;
55015;SDS011;40919;43.236;21.590;2022-08-19T08:58:27;9.35;;;6.43;;
55015;SDS011;40919;43.236;21.590;2022-08-19T09:00:59;8.75;;;6.50;;
55015;SDS011;40919;43.236;21.590;2022-08-19T09:03:26;7.75;;;6.20;;
55015;SDS011;40919;43.236;21.590;2022-08-19T09:06:03;10.20;;;6.63;;
55015;SDS011;40919;43.236;21.590;2022-08-19T09:36:52;12.73;;;5.25;;
55015;SDS011;40919;43.236;21.590;2022-08-19T10:00:40;11.75;;;7.10;;
55015;SDS011;40919;43.236;21.590;2022-08-19T10:03:06;9.23;;;6.43;;
55015;SDS011;40919;43.236;21.590;2022-08-19T10:05:32;15.85;;;7.78;;
55015;SDS011;40919;43.236;21.590;2022-08-19T10:08:20;7.10;;;5.28;;
55015;SDS011;40919;43.236;21.590;2022-08-19T10:10:50;11.40;;;8.57;;
55015;SDS011;40919;43.236;21.590;2022-08-19T10:16:16;11.45;;;6.80;;
55015;SDS011;40919;43.236;21.590;2022-08-19T10:18:45;11.45;;;7.13;;
55015;SDS011;40919;43.236;21.590;2022-08-19T10:21:13;14.45;;;6.53;;
55015;SDS011;40919;43.236;21.590;2022-08-19T10:23:44;37.80;;;7.43;;
55015;SDS011;40919;43.236;21.590;2022-08-19T10:26:14;10.70;;;6.07;;
55015;SDS011;40919;43.236;21.590;2022-08-19T10:28:46;15.60;;;5.55;;
55015;SDS011;40919;43.236;21.590;2022-08-19T10:31:23;25.80;;;6.55;;
55015;SDS011;40919;43.236;21.590;2022-08-19T10:33:51;10.63;;;4.40;;
55015;SDS011;40919;43.236;21.590;2022-08-19T10:36:28;7.75;;;5.05;;
55015;SDS011;40919;43.236;21.590;2022-08-19T10:39:03;5.47;;;4.38;;
55015;SDS011;40919;43.236;21.590;2022-08-19T10:41:32;9.65;;;4.78;;
55015;SDS011;40919;43.236;21.590;2022-08-19T10:44:01;6.93;;;4.07;;
55015;SDS011;40919;43.236;21.590;2022-08-19T10:46:28;9.40;;;4.00;;
55015;SDS011;40919;43.236;21.590;2022-08-19T10:48:57;7.30;;;4.13;;
55015;SDS011;40919;43.236;21.590;2022-08-19T10:51:27;10.13;;;4.47;;
55015;SDS011;40919;43.236;21.590;2022-08-19T10:54:11;8.02;;;5.15;;
55015;SDS011;40919;43.236;21.590;2022-08-19T10:56:38;7.30;;;4.38;;
55015;SDS011;40919;43.236;21.590;2022-08-19T10:59:19;6.88;;;4.57;;
55015;SDS011;40919;43.236;21.590;2022-08-19T11:01:52;8.85;;;4.70;;
55015;SDS011;40919;43.236;21.590;2022-08-19T11:04:19;13.75;;;5.65;;
55015;SDS011;40919;43.236;21.590;2022-08-19T11:06:48;17.02;;;7.72;;
55015;SDS011;40919;43.236;21.590;2022-08-19T11:09:18;7.22;;;5.43;;
55015;SDS011;40919;43.236;21.590;2022-08-19T11:11:55;10.55;;;4.65;;
55015;SDS011;40919;43.236;21.590;2022-08-19T11:14:22;12.35;;;4.32;;
55015;SDS011;40919;43.236;21.590;2022-08-19T11:16:52;8.18;;;4.93;;
55015;SDS011;40919;43.236;21.590;2022-08-19T11:46:14;8.60;;;4.05;;
55015;SDS011;40919;43.236;21.590;2022-08-19T11:51:33;9.88;;;4.95;;
55015;SDS011;40919;43.236;21.590;2022-08-19T11:54:00;10.40;;;5.78;;
55015;SDS011;40919;43.236;21.590;2022-08-19T11:56:27;11.20;;;5.55;;
55015;SDS011;40919;43.236;21.590;2022-08-19T11:58:55;9.80;;;5.28;;
55015;SDS011;40919;43.236;21.590;2022-08-19T12:01:23;9.05;;;4.38;;
55015;SDS011;40919;43.236;21.590;2022-08-19T12:03:52;6.38;;;3.45;;
55015;SDS011;40919;43.236;21.590;2022-08-19T12:06:30;10.27;;;4.32;;
55015;SDS011;40919;43.236;21.590;2022-08-19T12:18:13;12.75;;;4.20;;
55015;SDS011;40919;43.236;21.590;2022-08-19T12:20:42;6.50;;;4.30;;
55015;SDS011;40919;43.236;21.590;2022-08-19T12:23:13;10.30;;;3.95;;
55015;SDS011;40919;43.236;21.590;2022-08-19T12:25:46;9.10;;;4.07;;
55015;SDS011;40919;43.236;21.590;2022-08-19T12:28:15;6.95;;;3.78;;
55015;SDS011;40919;43.236;21.590;2022-08-19T12:30:45;7.28;;;3.85;;
55015;SDS011;40919;43.236;21.590;2022-08-19T12:33:14;6.85;;;3.60;;
55015;SDS011;40919;43.236;21.590;2022-08-19T12:35:44;10.98;;;3.80;;
55015;SDS011;40919;43.236;21.590;2022-08-19T12:38:11;7.13;;;3.73;;
55015;SDS011;40919;43.236;21.590;2022-08-19T12:40:40;9.02;;;4.55;;
55015;SDS011;40919;43.236;21.590;2022-08-19T12:43:14;9.00;;;3.90;;
55015;SDS011;40919;43.236;21.590;2022-08-19T12:46:12;7.57;;;3.53;;
55015;SDS011;40919;43.236;21.590;2022-08-19T12:51:49;12.90;;;4.63;;
55015;SDS011;40919;43.236;21.590;2022-08-19T13:22:17;8.95;;;4.57;;
55015;SDS011;40919;43.236;21.590;2022-08-19T13:24:58;7.60;;;4.43;;
55015;SDS011;40919;43.236;21.590;2022-08-19T13:31:09;8.45;;;4.15;;
55015;SDS011;40919;43.236;21.590;2022-08-19T13:33:57;10.45;;;4.20;;
55015;SDS011;40919;43.236;21.590;2022-08-19T13:39:38;12.32;;;4.18;;
55015;SDS011;40919;43.236;21.590;2022-08-19T13:56:45;10.32;;;4.28;;
55015;SDS011;40919;43.236;21.590;2022-08-19T13:59:11;9.07;;;3.78;;
55015;SDS011;40919;43.236;21.590;2022-08-19T14:01:43;8.05;;;3.90;;
55015;SDS011;40919;43.236;21.590;2022-08-19T14:04:13;12.15;;;6.63;;
55015;SDS011;40919;43.236;21.590;2022-08-19T14:06:39;11.57;;;5.60;;
55015;SDS011;40919;43.236;21.590;2022-08-19T14:09:05;12.77;;;6.82;;
55015;SDS011;40919;43.236;21.590;2022-08-19T14:11:37;12.70;;;4.95;;
55015;SDS011;40919;43.236;21.590;2022-08-19T14:14:19;9.30;;;5.57;;
55015;SDS011;40919;43.236;21.590;2022-08-19T14:16:53;12.67;;;5.50;;
55015;SDS011;40919;43.236;21.590;2022-08-19T14:19:26;8.23;;;4.22;;
55015;SDS011;40919;43.236;21.590;2022-08-19T14:21:57;9.50;;;6.95;;
55015;SDS011;40919;43.236;21.590;2022-08-19T14:24:26;11.10;;;5.65;;
55015;SDS011;40919;43.236;21.590;2022-08-19T16:05:38;14.55;;;5.03;;
55015;SDS011;40919;43.236;21.590;2022-08-19T16:08:23;10.02;;;4.88;;
55015;SDS011;40919;43.236;21.590;2022-08-19T16:10:49;13.93;;;4.72;;
55015;SDS011;40919;43.236;21.590;2022-08-19T16:13:15;12.98;;;4.78;;
55015;SDS011;40919;43.236;21.590;2022-08-19T16:15:42;12.30;;;4.78;;
55015;SDS011;40919;43.236;21.590;2022-08-19T16:18:08;15.63;;;6.10;;
55015;SDS011;40919;43.236;21.590;2022-08-19T16:20:35;15.70;;;4.85;;
55015;SDS011;40919;43.236;21.590;2022-08-19T16:23:01;9.38;;;4.40;;
55015;SDS011;40919;43.236;21.590;2022-08-19T16:25:28;11.00;;;4.60;;
55015;SDS011;40919;43.236;21.590;2022-08-19T16:27:55;13.55;;;5.63;;
55015;SDS011;40919;43.236;21.590;2022-08-19T16:30:23;11.75;;;5.00;;
55015;SDS011;40919;43.236;21.590;2022-08-19T16:32:49;14.82;;;5.75;;
55015;SDS011;40919;43.236;21.590;2022-08-19T16:35:15;15.70;;;5.38;;
55015;SDS011;40919;43.236;21.590;2022-08-19T16:37:41;11.73;;;5.55;;
55015;SDS011;40919;43.236;21.590;2022-08-19T16:40:08;13.77;;;6.90;;
55015;SDS011;40919;43.236;21.590;2022-08-19T16:42:34;14.95;;;6.38;;
55015;SDS011;40919;43.236;21.590;2022-08-19T16:45:01;14.20;;;7.10;;
55015;SDS011;40919;43.236;21.590;2022-08-19T16:47:28;12.88;;;7.25;;
55015;SDS011;40919;43.236;21.590;2022-08-19T16:49:54;14.02;;;6.60;;
55015;SDS011;40919;43.236;21.590;2022-08-19T16:52:20;17.65;;;7.80;;
55015;SDS011;40919;43.236;21.590;2022-08-19T16:54:50;14.80;;;7.40;;
55015;SDS011;40919;43.236;21.590;2022-08-19T16:57:17;14.38;;;7.57;;
55015;SDS011;40919;43.236;21.590;2022-08-19T16:59:44;13.40;;;7.93;;
55015;SDS011;40919;43.236;21.590;2022-08-19T17:02:10;20.13;;;11.05;;
55015;SDS011;40919;43.236;21.590;2022-08-19T17:04:37;18.38;;;7.75;;
55015;SDS011;40919;43.236;21.590;2022-08-19T17:13:20;9.98;;;5.28;;
55015;SDS011;40919;43.236;21.590;2022-08-19T17:15:51;9.43;;;5.80;;
55015;SDS011;40919;43.236;21.590;2022-08-19T17:18:21;19.48;;;7.28;;
55015;SDS011;40919;43.236;21.590;2022-08-19T17:23:17;14.68;;;8.07;;
55015;SDS011;40919;43.236;21.590;2022-08-19T17:25:46;12.30;;;7.50;;
55015;SDS011;40919;43.236;21.590;2022-08-19T17:28:17;31.42;;;7.28;;
55015;SDS011;40919;43.236;21.590;2022-08-19T17:30:47;18.40;;;6.53;;
55015;SDS011;40919;43.236;21.590;2022-08-19T17:33:13;22.50;;;8.35;;
55015;SDS011;40919;43.236;21.590;2022-08-19T17:35:39;19.90;;;7.90;;
55015;SDS011;40919;43.236;21.590;2022-08-19T17:38:12;21.52;;;8.07;;
55015;SDS011;40919;43.236;21.590;2022-08-19T17:40:43;15.18;;;7.05;;
55015;SDS011;40919;43.236;21.590;2022-08-19T17:43:11;17.60;;;6.97;;
55015;SDS011;40919;43.236;21.590;2022-08-19T17:45:41;19.30;;;6.90;;
55015;SDS011;40919;43.236;21.590;2022-08-19T17:48:08;9.35;;;4.68;;
55015;SDS011;40919;43.236;21.590;2022-08-19T17:50:35;11.80;;;5.20;;
55015;SDS011;40919;43.236;21.590;2022-08-19T17:53:02;12.70;;;5.35;;
55015;SDS011;40919;43.236;21.590;2022-08-19T17:55:28;11.82;;;6.00;;
55015;SDS011;40919;43.236;21.590;2022-08-19T17:57:54;21.58;;;6.03;;
55015;SDS011;40919;43.236;21.590;2022-08-19T18:00:20;12.73;;;5.72;;
55015;SDS011;40919;43.236;21.590;2022-08-19T18:02:54;15.95;;;5.70;;
55015;SDS011;40919;43.236;21.590;2022-08-19T18:05:22;11.85;;;5.53;;
55015;SDS011;40919;43.236;21.590;2022-08-19T18:07:53;12.95;;;5.25;;
55015;SDS011;40919;43.236;21.590;2022-08-19T18:10:21;16.90;;;7.13;;
55015;SDS011;40919;43.236;21.590;2022-08-19T18:12:48;14.60;;;7.63;;
55015;SDS011;40919;43.236;21.590;2022-08-19T18:15:15;12.77;;;6.07;;
55015;SDS011;40919;43.236;21.590;2022-08-19T18:17:41;14.93;;;5.95;;
55015;SDS011;40919;43.236;21.590;2022-08-19T18:20:09;17.25;;;6.32;;
55015;SDS011;40919;43.236;21.590;2022-08-19T18:22:40;15.05;;;5.35;;
55015;SDS011;40919;43.236;21.590;2022-08-19T18:25:08;14.85;;;5.85;;
55015;SDS011;40919;43.236;21.590;2022-08-19T18:27:35;15.07;;;5.00;;
55015;SDS011;40919;43.236;21.590;2022-08-19T18:30:02;15.70;;;6.50;;
55015;SDS011;40919;43.236;21.590;2022-08-19T18:32:31;21.15;;;7.88;;
55015;SDS011;40919;43.236;21.590;2022-08-19T18:34:59;16.85;;;6.95;;
55015;SDS011;40919;43.236;21.590;2022-08-19T18:37:28;17.33;;;7.03;;
55015;SDS011;40919;43.236;21.590;2022-08-19T18:39:54;12.55;;;6.13;;
55015;SDS011;40919;43.236;21.590;2022-08-19T18:42:43;19.90;;;5.82;;
55015;SDS011;40919;43.236;21.590;2022-08-19T18:45:28;16.65;;;7.53;;
55015;SDS011;40919;43.236;21.590;2022-08-19T18:48:13;18.08;;;7.68;;
55015;SDS011;40919;43.236;21.590;2022-08-19T18:50:58;18.70;;;7.25;;
55015;SDS011;40919;43.236;21.590;2022-08-19T18:53:30;20.55;;;6.85;;
55015;SDS011;40919;43.236;21.590;2022-08-19T18:55:58;21.95;;;7.82;;